Time;durP1;ratioP1;P1;durP2;ratioP2;P2;SDS_P1;SDS_P2;PMS_P1;PMS_P2;Temp;Humidity;BMP_temperature;BMP_pressure;BME280_temperature;BME280_humidity;BME280_pressure;Samples;Min_cycle;Max_cycle;Signal;HPM_P1;HPM_P2
2021/06/04 00:01:13;;;;;;;3.93;2.93;;;;;;;16.08;83.15;99198.59;5028158;28;20487;-68
2021/06/04 00:03:38;;;;;;;3.03;2.22;;;;;;;16.16;82.29;99195.56;5018289;28;20289;-68
2021/06/04 00:06:05;;;;;;;3.95;2.60;;;;;;;16.11;82.03;99200.88;5018397;28;20068;-68
2021/06/04 00:08:31;;;;;;;5.80;2.85;;;;;;;16.00;82.36;99186.94;5018854;28;20025;-67
2021/06/04 00:11:01;;;;;;;6.40;2.97;;;;;;;15.95;82.14;99196.88;5025271;28;20072;-68
2021/06/04 00:13:34;;;;;;;3.70;2.50;;;;;;;15.84;82.51;99190.28;5022022;28;20014;-68
2021/06/04 00:16:22;;;;;;;3.58;2.75;;;;;;;15.78;83.07;99196.66;5020744;28;20044;-68
2021/06/04 00:18:49;;;;;;;4.50;2.35;;;;;;;15.69;83.01;99193.41;5018928;28;20045;-68
2021/06/04 00:21:22;;;;;;;3.97;2.70;;;;;;;15.75;83.21;99194.41;5029762;28;20048;-68
2021/06/04 00:23:48;;;;;;;5.88;2.33;;;;;;;15.69;82.76;99187.09;5014718;28;20046;-68
2021/06/04 00:26:14;;;;;;;4.72;2.47;;;;;;;15.72;82.63;99197.59;5014186;28;20062;-68
2021/06/04 00:28:39;;;;;;;4.40;2.95;;;;;;;15.69;83.08;99193.41;5026208;28;20033;-67
2021/06/04 00:31:05;;;;;;;4.53;2.78;;;;;;;15.71;82.80;99191.28;5026759;28;20072;-69
2021/06/04 00:33:32;;;;;;;4.07;2.85;;;;;;;15.67;82.64;99189.22;5013874;28;20022;-69
2021/06/04 00:35:58;;;;;;;4.68;2.55;;;;;;;15.61;82.82;99184.66;5023705;28;20045;-69
2021/06/04 00:38:23;;;;;;;3.38;2.75;;;;;;;15.54;83.28;99182.00;5017556;28;20037;-69
2021/06/04 00:40:52;;;;;;;4.60;2.67;;;;;;;15.50;83.44;99186.25;5003050;28;20033;-68
2021/06/04 00:43:19;;;;;;;4.90;2.85;;;;;;;15.54;83.44;99188.28;5029818;28;20418;-68
2021/06/04 00:45:48;;;;;;;6.20;2.75;;;;;;;15.62;83.06;99194.53;5013770;28;20448;-68
2021/06/04 00:48:15;;;;;;;4.25;2.40;;;;;;;15.64;82.67;99186.91;5014681;28;20034;-69
2021/06/04 00:50:51;;;;;;;6.75;2.45;;;;;;;15.53;83.33;99186.59;5016831;28;20034;-69
2021/06/04 00:53:20;;;;;;;6.20;2.53;;;;;;;15.77;82.29;99186.78;5013552;28;20030;-68
2021/06/04 00:55:46;;;;;;;3.43;2.73;;;;;;;15.63;82.74;99188.00;5016694;28;20080;-68
2021/06/04 00:58:15;;;;;;;3.47;2.80;;;;;;;15.44;83.37;99193.44;5023586;28;20037;-69
2021/06/04 01:00:44;;;;;;;6.10;2.53;;;;;;;15.39;83.92;99185.09;5019165;28;20056;-68
2021/06/04 01:03:10;;;;;;;3.63;2.60;;;;;;;15.35;84.05;99178.41;5024292;28;20041;-68
2021/06/04 01:05:38;;;;;;;4.57;2.80;;;;;;;15.33;84.09;99191.47;5013740;28;20372;-69
2021/06/04 01:08:16;;;;;;;4.03;3.00;;;;;;;15.28;84.13;99191.28;5022880;28;20029;-69
2021/06/04 01:10:58;;;;;;;5.88;2.80;;;;;;;15.15;84.50;99180.53;5027707;28;20476;-67
2021/06/04 01:13:30;;;;;;;3.40;2.40;;;;;;;15.16;84.66;99188.44;5014756;28;20519;-67
2021/06/04 01:16:29;;;;;;;7.60;2.75;;;;;;;15.12;84.92;99179.06;5016537;28;20030;-68
2021/06/04 01:18:58;;;;;;;3.53;2.70;;;;;;;15.11;84.75;99185.56;5019924;28;20118;-68
2021/06/04 01:21:34;;;;;;;3.65;3.00;;;;;;;15.19;84.66;99190.72;5019546;28;20387;-68
2021/06/04 01:24:11;;;;;;;5.90;2.80;;;;;;;15.18;84.64;99186.34;5017139;28;20045;-67
2021/06/04 01:26:38;;;;;;;4.10;3.00;;;;;;;15.10;85.12;99195.63;5015776;28;20021;-68
2021/06/04 01:29:14;;;;;;;4.43;3.10;;;;;;;15.08;85.47;99197.75;5016215;28;20373;-67
2021/06/04 01:31:47;;;;;;;5.45;2.70;;;;;;;15.06;85.95;99197.16;5028803;28;20087;-68
2021/06/04 01:34:18;;;;;;;4.40;2.80;;;;;;;15.05;85.92;99195.47;5021797;28;20022;-69
2021/06/04 01:36:50;;;;;;;3.97;3.30;;;;;;;15.05;86.01;99202.81;5019597;28;20100;-68
2021/06/04 01:39:24;;;;;;;3.83;3.05;;;;;;;15.00;85.63;99200.75;5020127;28;20502;-68
2021/06/04 01:41:51;;;;;;;4.85;2.67;;;;;;;14.95;86.44;99192.41;5007582;28;20025;-68
2021/06/04 01:44:28;;;;;;;4.45;3.00;;;;;;;14.94;86.12;99201.66;5013615;28;20379;-68
2021/06/04 01:46:59;;;;;;;6.32;3.40;;;;;;;14.82;86.31;99187.91;5030456;28;20079;-68
2021/06/04 01:49:28;;;;;;;6.00;3.20;;;;;;;14.83;86.55;99208.66;5012189;28;20032;-67
2021/06/04 01:51:58;;;;;;;6.00;3.08;;;;;;;14.81;87.04;99199.03;5012441;28;20030;-68
2021/06/04 01:54:41;;;;;;;3.65;3.30;;;;;;;14.74;87.40;99193.63;5012896;28;20044;-68
2021/06/04 01:57:12;;;;;;;3.83;3.38;;;;;;;14.72;87.20;99205.78;5006899;28;20033;-68
2021/06/04 01:59:42;;;;;;;4.47;3.17;;;;;;;14.74;87.92;99198.25;4993266;28;20029;-67
2021/06/04 02:02:09;;;;;;;6.32;3.88;;;;;;;14.74;87.53;99206.41;5014738;28;20033;-68
2021/06/04 02:04:44;;;;;;;3.70;2.90;;;;;;;14.73;87.55;99207.47;5014033;28;20056;-67
2021/06/04 02:07:14;;;;;;;4.05;3.28;;;;;;;14.74;87.64;99203.69;5016446;28;20030;-68
2021/06/04 02:09:39;;;;;;;5.32;3.13;;;;;;;14.73;87.71;99211.03;5014164;28;20037;-68
2021/06/04 02:12:06;;;;;;;5.13;3.40;;;;;;;14.77;87.47;99195.06;5014924;28;20026;-68
2021/06/04 02:14:37;;;;;;;4.35;3.22;;;;;;;14.76;87.08;99193.41;5029816;28;20033;-68
2021/06/04 02:17:17;;;;;;;4.35;3.15;;;;;;;14.69;86.28;99201.63;5015120;28;20057;-68
2021/06/04 02:20:01;;;;;;;3.90;2.92;;;;;;;14.62;86.63;99201.69;5018977;28;20028;-68
2021/06/04 02:22:57;;;;;;;4.20;2.85;;;;;;;14.58;86.54;99207.78;5017649;28;20052;-67
2021/06/04 02:25:35;;;;;;;6.05;3.33;;;;;;;14.59;86.63;99201.25;4999516;28;20099;-68
2021/06/04 02:28:23;;;;;;;8.13;3.38;;;;;;;14.59;86.60;99193.97;5015156;28;20030;-68
2021/06/04 02:31:13;;;;;;;3.55;3.10;;;;;;;14.65;86.57;99194.97;5012655;28;20022;-68
2021/06/04 02:33:45;;;;;;;4.00;3.03;;;;;;;14.80;86.64;99202.78;5020902;28;20018;-68
2021/06/04 02:36:24;;;;;;;8.40;3.63;;;;;;;14.84;85.96;99190.41;5025572;28;20035;-68
2021/06/04 02:39:26;;;;;;;3.75;3.17;;;;;;;14.74;86.20;99198.25;5025574;28;20041;-67
2021/06/04 02:41:57;;;;;;;9.85;2.67;;;;;;;14.90;85.41;99194.97;5022986;28;20038;-67
2021/06/04 02:44:27;;;;;;;4.00;3.00;;;;;;;14.83;85.42;99188.75;5020405;28;20507;-68
2021/06/04 02:46:59;;;;;;;4.63;2.97;;;;;;;14.95;84.93;99199.75;5027827;28;20029;-68
2021/06/04 02:49:27;;;;;;;3.22;2.78;;;;;;;14.95;84.77;99189.69;5020242;28;20506;-67
2021/06/04 02:52:23;;;;;;;5.53;3.20;;;;;;;14.78;85.12;99196.75;5033553;28;20033;-68
2021/06/04 02:54:49;;;;;;;4.72;2.83;;;;;;;14.63;85.66;99191.63;5017349;28;20105;-68
2021/06/04 02:57:16;;;;;;;6.70;3.00;;;;;;;14.60;86.27;99190.16;5025319;28;20032;-68
2021/06/04 02:59:45;;;;;;;4.47;3.10;;;;;;;14.55;86.48;99192.72;5022301;28;20033;-67
2021/06/04 03:02:33;;;;;;;3.63;3.00;;;;;;;14.60;85.84;99195.59;5017351;28;20391;-68
2021/06/04 03:05:06;;;;;;;4.78;3.47;;;;;;;14.58;85.42;99192.25;5013924;28;20033;-67
2021/06/04 03:07:36;;;;;;;4.60;3.22;;;;;;;14.59;85.33;99191.22;5015508;28;20100;-68
2021/06/04 03:10:09;;;;;;;7.53;3.22;;;;;;;14.58;85.81;99188.72;5024930;28;20458;-68
2021/06/04 03:12:45;;;;;;;8.63;3.45;;;;;;;14.56;85.57;99197.09;5033641;28;20021;-68
2021/06/04 03:15:28;;;;;;;5.50;3.55;;;;;;;14.54;85.47;99188.34;5014942;28;20407;-66
2021/06/04 03:17:54;;;;;;;5.45;3.42;;;;;;;14.53;85.97;99194.81;5040548;28;20030;-68
2021/06/04 03:20:25;;;;;;;6.57;3.28;;;;;;;14.55;85.80;99194.59;5034200;28;20048;-66
2021/06/04 03:22:50;;;;;;;3.35;2.88;;;;;;;14.61;85.83;99199.16;5025849;28;20084;-67
2021/06/04 03:25:41;;;;;;;4.68;3.30;;;;;;;14.63;85.98;99202.50;5024835;28;20030;-66
2021/06/04 03:28:08;;;;;;;8.82;2.92;;;;;;;14.60;85.76;99202.94;5013203;28;20065;-66
2021/06/04 03:30:37;;;;;;;3.60;3.30;;;;;;;14.64;85.52;99212.34;5028526;28;20038;-65
2021/06/04 03:33:04;;;;;;;5.60;3.50;;;;;;;14.66;85.35;99213.78;5016194;28;20029;-67
2021/06/04 03:35:30;;;;;;;6.78;3.88;;;;;;;14.59;85.25;99217.59;5027335;28;20104;-66
2021/06/04 03:37:56;;;;;;;4.45;3.78;;;;;;;14.49;86.00;99215.34;5016297;28;20423;-67
2021/06/04 03:40:26;;;;;;;6.40;3.60;;;;;;;14.61;86.11;99218.22;5028262;28;20076;-66
2021/06/04 03:42:51;;;;;;;3.70;3.25;;;;;;;14.72;84.94;99216.69;5023875;28;20029;-67
2021/06/04 03:45:21;;;;;;;4.45;3.30;;;;;;;14.59;84.89;99209.44;5017682;28;20036;-66
2021/06/04 03:47:46;;;;;;;4.95;3.50;;;;;;;14.67;84.76;99229.09;5030302;28;20049;-66
2021/06/04 03:50:13;;;;;;;5.32;3.30;;;;;;;14.53;84.75;99211.16;5014611;28;20076;-67
2021/06/04 03:52:40;;;;;;;5.78;3.35;;;;;;;14.58;85.33;99227.66;5014832;28;20476;-67
2021/06/04 03:55:08;;;;;;;5.28;3.38;;;;;;;14.59;85.59;99223.03;5021286;28;20037;-66
2021/06/04 03:57:35;;;;;;;5.45;3.55;;;;;;;14.68;85.36;99219.84;5028468;28;20028;-67
2021/06/04 04:00:04;;;;;;;5.63;3.08;;;;;;;14.78;84.61;99227.53;5025071;28;20029;-68
2021/06/04 04:02:30;;;;;;;5.10;3.60;;;;;;;14.81;84.51;99229.81;5014811;28;20042;-66
2021/06/04 04:04:57;;;;;;;3.67;3.10;;;;;;;14.99;83.79;99229.06;5026263;28;20437;-67
2021/06/04 04:07:28;;;;;;;4.20;3.15;;;;;;;15.06;83.63;99221.69;5024382;28;20084;-66
2021/06/04 04:09:54;;;;;;;11.82;3.40;;;;;;;15.05;83.58;99227.34;5005999;28;20392;-66
2021/06/04 04:12:19;;;;;;;3.60;2.97;;;;;;;15.05;83.63;99206.38;5022195;28;20030;-76
2021/06/04 04:14:45;;;;;;;5.45;3.30;;;;;;;15.07;83.13;99211.59;5015085;28;20037;-75
2021/06/04 04:17:11;;;;;;;4.43;3.47;;;;;;;15.14;83.08;99212.38;5012128;28;20026;-73
2021/06/04 04:19:36;;;;;;;7.78;3.53;;;;;;;15.17;83.08;99222.00;5008423;28;20407;-74
2021/06/04 04:22:02;;;;;;;4.95;3.08;;;;;;;15.19;82.97;99211.69;4997676;28;20113;-73
2021/06/04 04:24:31;;;;;;;6.15;3.17;;;;;;;15.42;81.99;99220.09;5018692;28;20036;-71
2021/06/04 04:26:57;;;;;;;5.45;3.10;;;;;;;15.53;81.98;99230.25;5004948;28;20084;-72
2021/06/04 04:29:23;;;;;;;3.63;3.15;;;;;;;15.70;81.41;99230.53;5016791;28;20463;-74
2021/06/04 04:31:54;;;;;;;4.10;3.03;;;;;;;15.91;81.01;99231.97;5019952;28;20106;-72
2021/06/04 04:34:22;;;;;;;3.92;2.83;;;;;;;16.10;79.66;99237.44;5002994;28;20506;-75
2021/06/04 04:36:52;;;;;;;4.10;3.00;;;;;;;16.18;79.54;99227.03;5006513;28;20029;-72
2021/06/04 04:39:21;;;;;;;6.57;3.40;;;;;;;16.26;79.23;99239.53;5012124;28;20029;-73
2021/06/04 04:41:47;;;;;;;5.68;3.20;;;;;;;16.40;79.03;99241.03;5012828;28;20033;-73
2021/06/04 04:44:20;;;;;;;4.43;2.83;;;;;;;16.62;77.73;99240.53;5013615;28;20030;-74
2021/06/04 04:46:45;;;;;;;7.47;2.78;;;;;;;16.64;76.69;99243.88;5011959;28;20088;-74
2021/06/04 04:49:11;;;;;;;3.45;3.08;;;;;;;16.63;77.27;99239.44;5014082;28;20034;-72
2021/06/04 04:51:39;;;;;;;5.00;3.58;;;;;;;16.49;77.50;99249.75;5022156;28;20073;-70
2021/06/04 04:54:05;;;;;;;4.43;3.47;;;;;;;16.59;77.88;99243.72;5003710;28;20417;-70
2021/06/04 04:56:30;;;;;;;5.50;3.10;;;;;;;16.74;78.03;99244.16;5022793;28;20036;-77
2021/06/04 04:58:55;;;;;;;6.32;3.30;;;;;;;16.94;77.53;99234.84;5013943;28;20017;-72
2021/06/04 05:01:22;;;;;;;4.28;3.22;;;;;;;17.23;76.68;99238.56;5013776;28;20053;-73
2021/06/04 05:03:47;;;;;;;5.07;3.20;;;;;;;17.50;75.63;99233.44;5013907;28;20026;-73
2021/06/04 05:06:13;;;;;;;5.95;3.35;;;;;;;17.58;75.22;99238.59;5010944;28;20036;-71
2021/06/04 05:08:38;;;;;;;7.90;3.20;;;;;;;17.64;72.95;99237.63;5010138;28;20069;-71
2021/06/04 05:11:05;;;;;;;6.20;3.63;;;;;;;17.70;73.43;99228.44;5032783;28;20030;-71
2021/06/04 05:13:31;;;;;;;8.70;3.50;;;;;;;17.92;72.38;99231.44;5021463;28;20080;-72
2021/06/04 05:15:59;;;;;;;7.30;4.22;;;;;;;17.80;72.34;99246.22;5007042;28;20026;-72
2021/06/04 05:18:25;;;;;;;5.97;4.60;;;;;;;17.81;72.41;99240.50;5028130;28;20030;-71
2021/06/04 05:20:52;;;;;;;7.13;4.30;;;;;;;17.65;73.41;99246.66;5015291;28;20026;-71
2021/06/04 05:23:18;;;;;;;9.05;4.00;;;;;;;17.70;73.07;99244.88;5007470;28;20021;-72
2021/06/04 05:25:46;;;;;;;5.70;3.65;;;;;;;17.77;73.47;99243.94;5025232;28;20083;-73
2021/06/04 05:28:14;;;;;;;6.53;3.88;;;;;;;17.68;74.49;99255.25;5016996;28;20421;-71
2021/06/04 05:30:44;;;;;;;7.93;3.55;;;;;;;17.71;74.42;99262.97;5007884;28;20041;-73
2021/06/04 05:33:15;;;;;;;8.52;3.88;;;;;;;17.53;75.58;99258.44;5006290;28;20037;-71
2021/06/04 05:35:42;;;;;;;6.75;3.75;;;;;;;17.58;75.79;99265.94;4993092;28;20049;-67
2021/06/04 05:38:09;;;;;;;4.93;3.78;;;;;;;17.56;75.53;99259.88;5017843;28;20115;-67
2021/06/04 05:40:38;;;;;;;5.88;3.50;;;;;;;17.67;76.20;99274.63;5013145;28;20057;-67
2021/06/04 05:43:08;;;;;;;6.97;3.85;;;;;;;17.73;76.35;99279.13;5017203;28;20502;-67
2021/06/04 05:45:36;;;;;;;5.15;3.40;;;;;;;17.80;75.76;99279.06;5032474;28;20025;-67
2021/06/04 05:48:02;;;;;;;9.65;4.03;;;;;;;17.53;77.04;99291.28;5024533;28;20541;-68
2021/06/04 05:50:32;;;;;;;6.70;3.45;;;;;;;17.79;76.11;99289.19;5006075;28;20635;-68
2021/06/04 05:52:58;;;;;;;7.70;3.38;;;;;;;17.62;76.64;99286.28;5002120;28;20026;-68
2021/06/04 05:55:26;;;;;;;7.30;3.47;;;;;;;17.67;76.58;99294.63;5007269;28;20030;-73
2021/06/04 05:57:53;;;;;;;5.45;3.53;;;;;;;17.64;75.82;99277.84;5027359;28;20025;-69
2021/06/04 06:00:26;;;;;;;5.97;3.60;;;;;;;17.75;75.18;99280.56;5025602;28;20037;-69
2021/06/04 06:02:54;;;;;;;5.40;3.33;;;;;;;17.78;75.58;99290.22;5026924;28;20395;-69
2021/06/04 06:05:19;;;;;;;6.40;3.72;;;;;;;17.77;76.41;99290.47;5031788;28;20487;-69
2021/06/04 06:07:45;;;;;;;5.25;3.80;;;;;;;17.80;76.34;99282.63;5028513;28;20143;-69
2021/06/04 06:10:11;;;;;;;3.90;3.20;;;;;;;17.95;76.11;99304.06;5030360;28;20021;-68
2021/06/04 06:12:37;;;;;;;9.95;3.40;;;;;;;17.88;76.06;99295.13;5018860;28;20040;-69
2021/06/04 06:15:04;;;;;;;6.78;3.85;;;;;;;17.82;76.52;99290.63;5012342;28;20121;-68
2021/06/04 06:17:29;;;;;;;6.13;3.67;;;;;;;17.98;76.20;99300.00;5011888;28;20091;-68
2021/06/04 06:19:55;;;;;;;7.53;2.78;;;;;;;18.13;75.90;99292.97;5012093;28;20054;-68
2021/06/04 06:22:20;;;;;;;7.00;3.97;;;;;;;18.17;76.66;99296.03;5012343;28;20109;-68
2021/06/04 06:24:45;;;;;;;6.72;3.53;;;;;;;18.19;76.95;99302.13;5023986;28;20034;-69
2021/06/04 06:27:11;;;;;;;8.63;3.85;;;;;;;18.24;76.17;99310.44;5008721;28;20037;-69
2021/06/04 06:29:37;;;;;;;9.88;3.50;;;;;;;18.40;75.40;99300.63;5011050;28;20081;-69
2021/06/04 06:32:05;;;;;;;50.22;6.03;;;;;;;18.40;76.17;99293.25;5011133;28;20057;-68
2021/06/04 06:34:31;;;;;;;16.10;4.05;;;;;;;18.51;75.32;99294.28;5022897;28;20475;-69
2021/06/04 06:36:57;;;;;;;7.78;3.80;;;;;;;18.77;74.91;99297.56;5031448;28;20044;-69
2021/06/04 06:39:26;;;;;;;13.35;4.40;;;;;;;19.06;74.07;99292.88;5019176;28;20113;-69
2021/06/04 06:41:53;;;;;;;13.75;3.78;;;;;;;19.09;74.09;99297.06;5012361;28;20037;-69
2021/06/04 06:44:19;;;;;;;13.20;3.80;;;;;;;19.11;73.76;99292.97;5026387;28;20026;-73
2021/06/04 06:46:46;;;;;;;17.75;4.97;;;;;;;19.21;73.64;99284.09;5009708;28;20042;-72
2021/06/04 06:49:13;;;;;;;8.88;3.85;;;;;;;19.47;73.33;99272.47;5019007;28;20137;-75
2021/06/04 06:51:39;;;;;;;41.08;6.82;;;;;;;19.60;72.71;99289.69;5018538;28;20252;-75
2021/06/04 06:54:14;;;;;;;16.40;4.40;;;;;;;19.64;72.46;99291.66;5027866;28;20095;-72
2021/06/04 06:56:41;;;;;;;21.77;5.90;;;;;;;19.81;72.06;99299.09;5018041;28;20026;-72
2021/06/04 06:59:06;;;;;;;22.80;5.43;;;;;;;19.98;70.65;99291.66;5011573;28;20037;-73
2021/06/04 07:01:32;;;;;;;9.35;3.83;;;;;;;20.08;70.64;99288.22;5016821;28;20032;-74
2021/06/04 07:03:57;;;;;;;7.82;4.05;;;;;;;20.28;70.35;99284.94;5012484;28;20121;-75
2021/06/04 07:06:28;;;;;;;6.75;3.92;;;;;;;20.73;68.42;99292.09;5006892;28;20468;-74
2021/06/04 07:08:56;;;;;;;12.55;5.30;;;;;;;21.00;67.22;99295.66;5002802;28;20109;-75
2021/06/04 07:11:26;;;;;;;8.13;4.13;;;;;;;21.38;65.72;99282.84;5007265;28;20053;-72
2021/06/04 07:13:53;;;;;;;22.58;5.75;;;;;;;21.64;65.30;99291.28;5002389;28;20435;-73
2021/06/04 07:16:19;;;;;;;6.93;4.72;;;;;;;22.43;62.78;99286.84;5006247;28;20084;-71
2021/06/04 07:18:45;;;;;;;12.77;4.85;;;;;;;22.90;61.59;99275.69;5006769;28;20045;-75
2021/06/04 07:21:12;;;;;;;50.00;7.38;;;;;;;23.76;58.84;99282.41;5009690;28;20025;-72
2021/06/04 07:23:38;;;;;;;39.17;5.90;;;;;;;24.75;56.66;99276.25;5031561;28;20026;-72
2021/06/04 07:26:04;;;;;;;16.38;5.05;;;;;;;24.94;55.51;99279.19;5014170;28;20068;-72
2021/06/04 07:28:32;;;;;;;6.35;3.95;;;;;;;25.04;56.38;99279.13;5001951;28;20030;-73
2021/06/04 07:30:59;;;;;;;6.00;3.70;;;;;;;26.15;54.06;99272.13;4998135;28;20084;-72
2021/06/04 07:33:35;;;;;;;3.90;2.72;;;;;;;29.28;46.21;99280.31;5021437;28;20479;-72
2021/06/04 07:36:05;;;;;;;4.18;2.92;;;;;;;31.30;41.91;99275.22;5021224;28;20629;-72
2021/06/04 07:38:31;;;;;;;4.57;3.40;;;;;;;33.83;37.47;99274.75;5009674;28;20065;-72
2021/06/04 07:40:59;;;;;;;5.75;2.90;;;;;;;34.66;36.18;99287.63;5014141;28;20129;-72
2021/06/04 07:43:28;;;;;;;6.03;3.17;;;;;;;35.62;34.78;99279.66;5014228;28;20022;-72
2021/06/04 07:45:54;;;;;;;3.67;2.80;;;;;;;36.09;33.14;99279.75;5019112;28;20036;-72
2021/06/04 07:48:20;;;;;;;7.68;2.95;;;;;;;36.27;32.72;99279.41;5028667;28;20055;-72
2021/06/04 07:50:49;;;;;;;3.88;2.80;;;;;;;35.79;33.59;99276.53;5013930;28;20483;-70
2021/06/04 07:53:17;;;;;;;11.10;3.17;;;;;;;36.46;33.22;99281.47;5015963;28;20052;-73
2021/06/04 07:55:44;;;;;;;9.02;3.67;;;;;;;36.23;32.94;99281.31;5031692;28;20037;-73
2021/06/04 07:58:10;;;;;;;18.05;4.70;;;;;;;33.52;36.91;99280.81;5003698;28;20029;-73
2021/06/04 08:00:38;;;;;;;16.92;4.70;;;;;;;33.37;36.76;99279.47;4998642;28;20391;-73
2021/06/04 08:03:05;;;;;;;5.05;2.42;;;;;;;33.49;37.82;99285.13;5005970;28;20502;-73
2021/06/04 08:05:33;;;;;;;6.63;2.87;;;;;;;34.61;36.49;99285.06;5021003;28;20082;-73
2021/06/04 08:07:59;;;;;;;7.88;2.83;;;;;;;35.15;34.49;99280.28;5016606;28;20029;-72
2021/06/04 08:10:25;;;;;;;2.75;2.38;;;;;;;36.11;33.06;99276.59;5021298;28;20587;-72
2021/06/04 08:12:52;;;;;;;14.90;4.00;;;;;;;36.29;33.66;99275.03;5024188;28;20437;-74
2021/06/04 08:15:22;;;;;;;15.63;3.78;;;;;;;34.72;34.92;99278.97;5013691;28;20439;-74
2021/06/04 08:17:48;;;;;;;4.97;2.40;;;;;;;30.11;44.43;99284.63;5018134;28;20037;-72
2021/06/04 08:20:22;;;;;;;3.00;2.63;;;;;;;29.33;44.75;99281.34;5017032;28;20032;-72
2021/06/04 08:22:48;;;;;;;7.38;2.85;;;;;;;29.20;45.75;99283.84;5025836;28;20034;-73
2021/06/04 08:25:15;;;;;;;4.18;2.78;;;;;;;28.05;48.64;99282.09;5024394;28;20505;-72
2021/06/04 08:27:40;;;;;;;10.02;3.15;;;;;;;27.34;50.46;99277.75;5016808;28;20084;-72
2021/06/04 08:30:08;;;;;;;5.68;3.08;;;;;;;26.95;51.28;99278.88;5016427;28;20025;-72
2021/06/04 08:32:34;;;;;;;5.68;3.05;;;;;;;25.95;53.17;99293.38;5020166;28;20021;-72
2021/06/04 08:35:01;;;;;;;5.70;3.50;;;;;;;25.99;53.49;99285.31;5015972;28;20034;-72
2021/06/04 08:37:26;;;;;;;5.10;3.92;;;;;;;25.30;55.29;99298.38;5010648;28;20026;-72
2021/06/04 08:39:51;;;;;;;7.05;3.97;;;;;;;24.88;56.73;99308.03;5005580;28;20102;-72
2021/06/04 08:42:38;;;;;;;6.65;3.97;;;;;;;24.59;57.97;99305.13;5006276;28;20028;-72
2021/06/04 08:45:42;;;;;;;8.90;4.28;;;;;;;24.75;57.59;99303.94;5018239;28;20021;-72
2021/06/04 08:48:35;;;;;;;6.97;4.18;;;;;;;24.93;57.39;99303.28;4993397;28;20042;-73
2021/06/04 08:51:38;;;;;;;5.32;4.30;;;;;;;25.28;56.57;99295.91;5030312;28;20078;-72
2021/06/04 08:54:38;;;;;;;6.93;3.70;;;;;;;25.98;54.57;99298.34;5021038;28;20072;-72
2021/06/04 08:57:36;;;;;;;7.10;4.90;;;;;;;26.18;53.50;99297.31;4991682;28;20065;-72
2021/06/04 09:00:07;;;;;;;6.55;4.25;;;;;;;28.22;49.35;99292.63;5023201;28;20029;-72
2021/06/04 09:02:40;;;;;;;6.03;4.15;;;;;;;29.88;45.96;99307.00;5016203;28;20034;-72
2021/06/04 09:05:12;;;;;;;5.80;4.13;;;;;;;30.43;43.74;99293.81;5011843;28;20036;-72
2021/06/04 09:07:43;;;;;;;6.05;4.30;;;;;;;30.60;43.52;99301.41;5011780;28;20041;-72
2021/06/04 09:10:17;;;;;;;5.68;3.25;;;;;;;30.32;44.23;99296.91;5030728;28;20033;-72
2021/06/04 09:13:08;;;;;;;9.43;4.43;;;;;;;29.85;44.19;99304.03;5014797;28;20100;-72
2021/06/04 09:15:36;;;;;;;13.73;4.30;;;;;;;30.27;44.92;99312.97;5017010;28;20025;-72
2021/06/04 09:18:06;;;;;;;7.03;4.75;;;;;;;30.49;43.93;99303.69;4999800;28;20029;-72
2021/06/04 09:20:46;;;;;;;9.18;4.60;;;;;;;31.85;41.61;99308.06;5017446;28;20136;-72
2021/06/04 09:23:15;;;;;;;5.95;4.13;;;;;;;33.22;39.62;99299.72;5010324;28;20030;-72
2021/06/04 09:25:42;;;;;;;4.75;4.07;;;;;;;33.73;38.53;99295.66;5014973;28;20072;-73
2021/06/04 09:28:10;;;;;;;7.82;4.32;;;;;;;34.44;37.22;99297.31;5018706;28;20025;-72
2021/06/04 09:30:40;;;;;;;4.30;3.90;;;;;;;35.40;35.68;99295.06;5018814;28;20080;-72
2021/06/04 09:33:18;;;;;;;4.85;3.50;;;;;;;34.85;36.63;99301.06;5018804;28;20033;-74
2021/06/04 09:36:18;;;;;;;6.32;3.90;;;;;;;35.08;35.83;99297.75;5007200;28;20601;-72
2021/06/04 09:38:52;;;;;;;9.27;3.80;;;;;;;34.55;36.78;99288.41;5029623;28;20133;-72
2021/06/04 09:41:20;;;;;;;5.10;3.30;;;;;;;35.28;34.53;99279.06;5018039;28;20396;-72
2021/06/04 09:43:48;;;;;;;13.10;3.85;;;;;;;36.35;33.77;99273.56;5020658;28;20037;-73
2021/06/04 09:46:26;;;;;;;5.18;2.80;;;;;;;36.91;33.09;99275.31;5012048;28;20029;-74
2021/06/04 09:48:57;;;;;;;4.30;2.60;;;;;;;37.59;31.65;99254.19;4994345;28;20041;-73
2021/06/04 09:51:30;;;;;;;3.95;2.53;;;;;;;37.33;32.01;99257.69;4994139;28;20516;-73
2021/06/04 09:54:17;;;;;;;4.00;2.45;;;;;;;36.64;32.81;99260.19;5014657;28;20387;-73
2021/06/04 09:56:42;;;;;;;6.13;3.00;;;;;;;38.06;30.88;99261.56;5015692;28;20033;-75
2021/06/04 09:59:22;;;;;;;5.60;2.63;;;;;;;37.60;31.89;99249.38;5013275;28;20551;-74
2021/06/04 10:01:51;;;;;;;3.85;2.53;;;;;;;36.12;33.35;99233.94;5030005;28;20634;-73
2021/06/04 10:04:32;;;;;;;4.82;1.90;;;;;;;38.60;30.99;99244.69;5032285;28;20029;-72
2021/06/04 10:07:18;;;;;;;4.25;2.03;;;;;;;38.60;30.30;99241.88;5014622;28;20436;-72
2021/06/04 10:09:48;;;;;;;3.90;1.85;;;;;;;37.79;30.93;99237.22;5013580;28;20029;-72
2021/06/04 10:12:31;;;;;;;6.78;2.10;;;;;;;37.95;30.83;99235.09;5014559;28;20025;-71
2021/06/04 10:15:03;;;;;;;4.32;2.33;;;;;;;38.47;30.17;99233.59;5013767;28;20040;-72
2021/06/04 10:17:58;;;;;;;3.03;1.83;;;;;;;39.55;29.03;99229.38;5028550;28;20031;-71
2021/06/04 10:20:32;;;;;;;4.90;1.85;;;;;;;38.41;30.25;99235.09;5019359;28;20029;-72
2021/06/04 10:23:11;;;;;;;5.68;1.77;;;;;;;39.38;29.35;99228.81;5015642;28;20037;-72
2021/06/04 10:25:42;;;;;;;1.77;1.40;;;;;;;39.80;29.29;99238.97;5004193;28;20029;-71
2021/06/04 10:28:27;;;;;;;7.45;1.90;;;;;;;39.59;28.96;99225.38;5008612;28;20041;-73
2021/06/04 10:30:53;;;;;;;5.90;1.80;;;;;;;38.78;30.35;99221.13;4993891;28;20534;-72
2021/06/04 10:33:39;;;;;;;2.83;1.60;;;;;;;39.10;30.04;99214.28;5022346;28;20037;-70
2021/06/04 10:36:08;;;;;;;2.95;1.50;;;;;;;38.67;29.85;99217.31;5007771;28;20626;-72
2021/06/04 10:38:40;;;;;;;2.58;1.40;;;;;;;37.91;30.63;99220.09;4995355;28;20025;-72
2021/06/04 10:41:19;;;;;;;2.97;1.42;;;;;;;38.99;28.87;99222.63;5018790;28;20342;-72
2021/06/04 10:44:11;;;;;;;4.47;1.30;;;;;;;40.15;27.75;99225.53;5010590;28;20081;-72
2021/06/04 10:46:47;;;;;;;3.63;1.40;;;;;;;39.67;28.68;99226.28;5009114;28;20045;-72
2021/06/04 10:49:46;;;;;;;3.10;1.40;;;;;;;40.27;27.70;99219.56;5015571;28;20048;-72
2021/06/04 10:52:36;;;;;;;4.38;1.52;;;;;;;40.42;27.89;99220.47;5012415;28;20066;-72
2021/06/04 10:55:15;;;;;;;3.28;1.60;;;;;;;39.65;27.78;99226.66;5013526;28;20036;-71
2021/06/04 10:57:51;;;;;;;3.10;1.70;;;;;;;40.10;28.17;99209.69;5016586;28;20383;-72
2021/06/04 11:00:30;;;;;;;7.20;1.80;;;;;;;39.86;28.25;99203.41;5001309;28;20057;-72
2021/06/04 11:03:14;;;;;;;6.70;1.60;;;;;;;39.54;28.66;99202.25;4993513;28;20551;-72
2021/06/04 11:05:43;;;;;;;3.95;1.52;;;;;;;39.89;27.81;99190.47;5006783;28;20029;-72
2021/06/04 11:08:27;;;;;;;5.00;1.60;;;;;;;39.97;26.79;99182.88;5006514;28;20081;-72
2021/06/04 11:11:22;;;;;;;2.55;1.20;;;;;;;40.80;27.48;99175.75;5006861;28;20483;-72
2021/06/04 11:14:05;;;;;;;3.88;1.48;;;;;;;39.49;28.22;99185.63;5009141;28;20435;-72
2021/06/04 11:16:40;;;;;;;2.13;1.42;;;;;;;40.20;27.00;99180.63;5005378;28;21135;-72
2021/06/04 11:19:20;;;;;;;4.32;1.60;;;;;;;39.66;27.17;99182.16;5005130;28;20544;-72
2021/06/04 11:21:55;;;;;;;10.10;1.67;;;;;;;40.31;27.29;99184.34;5013094;28;20065;-72
2021/06/04 11:24:37;;;;;;;3.72;1.88;;;;;;;40.49;27.81;99192.97;5030902;28;20510;-71
2021/06/04 11:27:03;;;;;;;5.93;1.60;;;;;;;40.50;26.90;99186.09;5025663;28;20116;-71
2021/06/04 11:29:35;;;;;;;4.82;1.55;;;;;;;40.54;26.54;99174.78;5022936;28;20029;-71
2021/06/04 11:32:13;;;;;;;3.30;1.30;;;;;;;39.76;26.69;99164.44;5012957;28;20040;-71
2021/06/04 11:35:10;;;;;;;8.02;1.67;;;;;;;39.61;27.94;99159.84;5012418;28;20045;-71
2021/06/04 11:37:48;;;;;;;3.05;1.40;;;;;;;37.88;28.96;99155.88;5011709;28;20029;-72
2021/06/04 11:40:19;;;;;;;3.90;1.60;;;;;;;37.10;29.83;99153.25;5010881;28;20158;-71
2021/06/04 11:42:48;;;;;;;61.17;4.53;;;;;;;36.61;31.96;99134.88;5013196;28;20121;-71
2021/06/04 11:45:16;;;;;;;5.10;1.65;;;;;;;35.59;32.92;99142.47;5013921;28;20484;-71
2021/06/04 11:47:41;;;;;;;4.97;1.75;;;;;;;35.28;33.40;99144.03;5002839;28;20132;-71
2021/06/04 11:50:09;;;;;;;3.63;1.67;;;;;;;34.16;34.95;99144.69;5013049;28;20148;-71
2021/06/04 11:52:44;;;;;;;28.52;3.53;;;;;;;33.21;37.61;99150.28;5011549;28;20368;-71